LZB978 LBWN-LBSF
Flight info
| Callsign | LZB978 |
|---|---|
| Flight time | 0h 37m |
| Altitude | 26000 |
| Route | DICXA2N/09 DICXA T343 UMPIT |
| Aircraft | A320/M-SDE3FGHIRWY/LB1 |
Departure
| Time | 2026-05-05 17:32 |
|---|---|
| Airport | Varna Airport (LBWN) |
Arrival
| Time | 2026-05-05 18:09 |
|---|---|
| Airport | Sofia Airport (LBSF) |
| Time | Latitude | Longitude | Altitude | Speed | Heading |
|---|---|---|---|---|---|
| 2026-05-05 17:05 | 43.23607 | 27.82650 | 244 ft | 0 kts | 58° |
| 2026-05-05 17:26 | 43.23607 | 27.82649 | 244 ft | 0 kts | 58° |
| 2026-05-05 17:26 | 43.23608 | 27.82651 | 244 ft | 0 kts | 58° |
| 2026-05-05 17:26 | 43.23610 | 27.82667 | 245 ft | 4 kts | 96° |
| 2026-05-05 17:27 | 43.23581 | 27.82673 | 242 ft | 10 kts | 187° |
| 2026-05-05 17:27 | 43.23548 | 27.82723 | 242 ft | 9 kts | 103° |
| 2026-05-05 17:27 | 43.23539 | 27.82830 | 245 ft | 13 kts | 92° |
| 2026-05-05 17:27 | 43.23551 | 27.82972 | 248 ft | 16 kts | 82° |
| 2026-05-05 17:28 | 43.23530 | 27.83142 | 249 ft | 20 kts | 129° |
| 2026-05-05 17:28 | 43.23401 | 27.83283 | 247 ft | 26 kts | 132° |
| 2026-05-05 17:28 | 43.23358 | 27.83524 | 244 ft | 26 kts | 96° |
| 2026-05-05 17:28 | 43.23335 | 27.83776 | 239 ft | 26 kts | 97° |
| 2026-05-05 17:29 | 43.23299 | 27.84025 | 234 ft | 27 kts | 124° |
| 2026-05-05 17:29 | 43.23132 | 27.84067 | 230 ft | 26 kts | 212° |
| 2026-05-05 17:29 | 43.23074 | 27.83885 | 232 ft | 9 kts | 277° |
| 2026-05-05 17:29 | 43.23074 | 27.83876 | 232 ft | 0 kts | 277° |
| 2026-05-05 17:31 | 43.23077 | 27.83851 | 233 ft | 11 kts | 277° |
| 2026-05-05 17:31 | 43.23117 | 27.83403 | 241 ft | 84 kts | 278° |
| 2026-05-05 17:31 | 43.23214 | 27.82295 | 233 ft | 149 kts | 277° |
| 2026-05-05 17:32 | 43.23364 | 27.80690 | 464 ft | 179 kts | 278° |
| 2026-05-05 17:32 | 43.23527 | 27.79024 | 1157 ft | 179 kts | 277° |
| 2026-05-05 17:32 | 43.23678 | 27.77360 | 1932 ft | 178 kts | 277° |
| 2026-05-05 17:32 | 43.23822 | 27.75659 | 2538 ft | 188 kts | 278° |
| 2026-05-05 17:33 | 43.23977 | 27.73820 | 3050 ft | 205 kts | 279° |
| 2026-05-05 17:33 | 43.24152 | 27.71812 | 3571 ft | 222 kts | 279° |
| 2026-05-05 17:33 | 43.24162 | 27.69576 | 4008 ft | 248 kts | 265° |
| 2026-05-05 17:33 | 43.23874 | 27.67165 | 4590 ft | 266 kts | 262° |
| 2026-05-05 17:34 | 43.23523 | 27.64642 | 5325 ft | 278 kts | 263° |
| 2026-05-05 17:34 | 43.23170 | 27.62036 | 6224 ft | 282 kts | 264° |
| 2026-05-05 17:34 | 43.22828 | 27.59385 | 7113 ft | 286 kts | 265° |
| 2026-05-05 17:34 | 43.22501 | 27.56714 | 7971 ft | 291 kts | 265° |
| 2026-05-05 17:35 | 43.22174 | 27.53983 | 8815 ft | 295 kts | 266° |
| 2026-05-05 17:35 | 43.21844 | 27.51194 | 9648 ft | 300 kts | 266° |
| 2026-05-05 17:35 | 43.21515 | 27.48382 | 10425 ft | 306 kts | 266° |
| 2026-05-05 17:35 | 43.21173 | 27.45422 | 10930 ft | 322 kts | 266° |
| 2026-05-05 17:36 | 43.20818 | 27.42332 | 11330 ft | 340 kts | 266° |
| 2026-05-05 17:36 | 43.20440 | 27.39082 | 11704 ft | 358 kts | 266° |
| 2026-05-05 17:36 | 43.20035 | 27.35632 | 12180 ft | 372 kts | 265° |
| 2026-05-05 17:36 | 43.19619 | 27.32131 | 12884 ft | 377 kts | 265° |
| 2026-05-05 17:37 | 43.19195 | 27.28572 | 13631 ft | 380 kts | 265° |
| 2026-05-05 17:37 | 43.18772 | 27.25018 | 14364 ft | 384 kts | 265° |
| 2026-05-05 17:37 | 43.18343 | 27.21420 | 15058 ft | 388 kts | 265° |
| 2026-05-05 17:37 | 43.17906 | 27.17754 | 15658 ft | 392 kts | 265° |
| 2026-05-05 17:38 | 43.17464 | 27.14048 | 15987 ft | 394 kts | 265° |
| 2026-05-05 17:38 | 43.17023 | 27.10368 | 16047 ft | 394 kts | 265° |
| 2026-05-05 17:38 | 43.16577 | 27.06657 | 16049 ft | 394 kts | 265° |
| 2026-05-05 17:38 | 43.16130 | 27.02955 | 16087 ft | 397 kts | 265° |
| 2026-05-05 17:39 | 43.15679 | 26.99204 | 16579 ft | 403 kts | 264° |
| 2026-05-05 17:39 | 43.15222 | 26.95434 | 17365 ft | 402 kts | 264° |
| 2026-05-05 17:39 | 43.14780 | 26.91792 | 18040 ft | 404 kts | 265° |
| 2026-05-05 17:39 | 43.14322 | 26.88026 | 18649 ft | 408 kts | 264° |
| 2026-05-05 17:40 | 43.13921 | 26.84162 | 19253 ft | 409 kts | 267° |
| 2026-05-05 17:40 | 43.13619 | 26.80315 | 19876 ft | 411 kts | 268° |
| 2026-05-05 17:40 | 43.13325 | 26.76387 | 20460 ft | 414 kts | 268° |
| 2026-05-05 17:40 | 43.13028 | 26.72495 | 21044 ft | 417 kts | 268° |
| 2026-05-05 17:41 | 43.12719 | 26.68542 | 21620 ft | 420 kts | 267° |
| 2026-05-05 17:41 | 43.12403 | 26.64580 | 22179 ft | 423 kts | 267° |
| 2026-05-05 17:41 | 43.12078 | 26.60579 | 22730 ft | 425 kts | 267° |
| 2026-05-05 17:41 | 43.11749 | 26.56566 | 23277 ft | 428 kts | 267° |
| 2026-05-05 17:42 | 43.11411 | 26.52494 | 23799 ft | 430 kts | 267° |
| 2026-05-05 17:42 | 43.11073 | 26.48436 | 24299 ft | 433 kts | 267° |
| 2026-05-05 17:42 | 43.10732 | 26.44368 | 24769 ft | 436 kts | 267° |
| 2026-05-05 17:42 | 43.10385 | 26.40242 | 25235 ft | 439 kts | 267° |
| 2026-05-05 17:43 | 43.10035 | 26.36116 | 25672 ft | 441 kts | 267° |
| 2026-05-05 17:43 | 43.09678 | 26.31910 | 26000 ft | 444 kts | 266° |
| 2026-05-05 17:43 | 43.09320 | 26.27708 | 26040 ft | 444 kts | 266° |
| 2026-05-05 17:43 | 43.08963 | 26.23555 | 26045 ft | 444 kts | 266° |
| 2026-05-05 17:44 | 43.08601 | 26.19336 | 26053 ft | 444 kts | 266° |
| 2026-05-05 17:44 | 43.08240 | 26.15170 | 26057 ft | 444 kts | 267° |
| 2026-05-05 17:44 | 43.07878 | 26.11006 | 26054 ft | 444 kts | 267° |
| 2026-05-05 17:44 | 43.07514 | 26.06817 | 26053 ft | 444 kts | 267° |
| 2026-05-05 17:45 | 43.07147 | 26.02630 | 26051 ft | 444 kts | 267° |
| 2026-05-05 17:45 | 43.06780 | 25.98451 | 26051 ft | 443 kts | 267° |
| 2026-05-05 17:45 | 43.06410 | 25.94260 | 26044 ft | 443 kts | 267° |
| 2026-05-05 17:45 | 43.06038 | 25.90073 | 26041 ft | 443 kts | 267° |
| 2026-05-05 17:46 | 43.05666 | 25.85914 | 26035 ft | 443 kts | 267° |
| 2026-05-05 17:46 | 43.05295 | 25.81779 | 26033 ft | 443 kts | 267° |
| 2026-05-05 17:46 | 43.04918 | 25.77582 | 26027 ft | 443 kts | 267° |
| 2026-05-05 17:46 | 43.04540 | 25.73388 | 26026 ft | 443 kts | 267° |
| 2026-05-05 17:47 | 43.04163 | 25.69224 | 26030 ft | 443 kts | 267° |
| 2026-05-05 17:47 | 43.03789 | 25.65113 | 26026 ft | 443 kts | 267° |
| 2026-05-05 17:47 | 43.03408 | 25.60940 | 26024 ft | 442 kts | 267° |
| 2026-05-05 17:47 | 43.03028 | 25.56775 | 26029 ft | 442 kts | 267° |
| 2026-05-05 17:48 | 43.02645 | 25.52614 | 26030 ft | 442 kts | 267° |
| 2026-05-05 17:48 | 43.02263 | 25.48482 | 26031 ft | 442 kts | 267° |
| 2026-05-05 17:48 | 43.01877 | 25.44321 | 26033 ft | 442 kts | 267° |
| 2026-05-05 17:48 | 43.01490 | 25.40173 | 26031 ft | 441 kts | 267° |
| 2026-05-05 17:49 | 43.01098 | 25.35987 | 26035 ft | 441 kts | 267° |
| 2026-05-05 17:49 | 43.00709 | 25.31839 | 26037 ft | 442 kts | 266° |
| 2026-05-05 17:49 | 43.00314 | 25.27647 | 26040 ft | 442 kts | 266° |
| 2026-05-05 17:49 | 42.99925 | 25.23533 | 26039 ft | 442 kts | 266° |
| 2026-05-05 17:50 | 42.99529 | 25.19348 | 26040 ft | 442 kts | 266° |
| 2026-05-05 17:50 | 42.99134 | 25.15209 | 26038 ft | 442 kts | 266° |
| 2026-05-05 17:50 | 42.98737 | 25.11066 | 26039 ft | 441 kts | 266° |
| 2026-05-05 17:50 | 42.98338 | 25.06923 | 25967 ft | 442 kts | 266° |
| 2026-05-05 17:51 | 42.97941 | 25.02813 | 25694 ft | 438 kts | 266° |
| 2026-05-05 17:51 | 42.97542 | 24.98694 | 25433 ft | 436 kts | 266° |
| 2026-05-05 17:51 | 42.97142 | 24.94579 | 25172 ft | 435 kts | 266° |
| 2026-05-05 17:51 | 42.96745 | 24.90513 | 24879 ft | 432 kts | 266° |
| 2026-05-05 17:52 | 42.96351 | 24.86494 | 24155 ft | 432 kts | 266° |
| 2026-05-05 17:52 | 42.95953 | 24.82412 | 23164 ft | 438 kts | 266° |
| 2026-05-05 17:52 | 42.95549 | 24.78311 | 22566 ft | 434 kts | 266° |
| 2026-05-05 17:52 | 42.95149 | 24.74290 | 22016 ft | 429 kts | 266° |
| 2026-05-05 17:53 | 42.94752 | 24.70307 | 21474 ft | 425 kts | 266° |
| 2026-05-05 17:53 | 42.94352 | 24.66320 | 20944 ft | 421 kts | 266° |
| 2026-05-05 17:53 | 42.93959 | 24.62402 | 20423 ft | 417 kts | 266° |
| 2026-05-05 17:53 | 42.93571 | 24.58532 | 19921 ft | 418 kts | 265° |
| 2026-05-05 17:54 | 42.93171 | 24.54544 | 19378 ft | 425 kts | 265° |
| 2026-05-05 17:54 | 42.92769 | 24.50584 | 18860 ft | 424 kts | 265° |
| 2026-05-05 17:54 | 42.92366 | 24.46612 | 18313 ft | 422 kts | 265° |
| 2026-05-05 17:54 | 42.91963 | 24.42679 | 17780 ft | 419 kts | 265° |
| 2026-05-05 17:55 | 42.91560 | 24.38777 | 17200 ft | 414 kts | 265° |
| 2026-05-05 17:55 | 42.91164 | 24.34945 | 16576 ft | 411 kts | 264° |
| 2026-05-05 17:55 | 42.90763 | 24.31051 | 15947 ft | 407 kts | 264° |
| 2026-05-05 17:55 | 42.90371 | 24.27252 | 15335 ft | 404 kts | 264° |
| 2026-05-05 17:56 | 42.89986 | 24.23525 | 14747 ft | 400 kts | 264° |
| 2026-05-05 17:56 | 42.89588 | 24.19794 | 14467 ft | 399 kts | 264° |
| 2026-05-05 17:56 | 42.89185 | 24.16053 | 14125 ft | 398 kts | 264° |
| 2026-05-05 17:56 | 42.88783 | 24.12321 | 13681 ft | 396 kts | 264° |
| 2026-05-05 17:57 | 42.88387 | 24.08607 | 13202 ft | 393 kts | 264° |
| 2026-05-05 17:57 | 42.88005 | 24.05026 | 12741 ft | 390 kts | 264° |
| 2026-05-05 17:57 | 42.87621 | 24.01409 | 12269 ft | 386 kts | 264° |
| 2026-05-05 17:57 | 42.87238 | 23.97796 | 11804 ft | 383 kts | 264° |
| 2026-05-05 17:58 | 42.86862 | 23.94245 | 11347 ft | 379 kts | 263° |
| 2026-05-05 17:58 | 42.86487 | 23.90730 | 10883 ft | 376 kts | 263° |
| 2026-05-05 17:58 | 42.86114 | 23.87226 | 10457 ft | 372 kts | 263° |
| 2026-05-05 17:58 | 42.85737 | 23.83716 | 10348 ft | 372 kts | 263° |
| 2026-05-05 17:59 | 42.85362 | 23.80241 | 10232 ft | 371 kts | 263° |
| 2026-05-05 17:59 | 42.84988 | 23.76770 | 10129 ft | 370 kts | 263° |
| 2026-05-05 17:59 | 42.84612 | 23.73295 | 10021 ft | 370 kts | 263° |
| 2026-05-05 17:59 | 42.84236 | 23.69832 | 9584 ft | 367 kts | 263° |
| 2026-05-05 18:00 | 42.83865 | 23.66427 | 9167 ft | 364 kts | 263° |
| 2026-05-05 18:00 | 42.83501 | 23.63067 | 8767 ft | 362 kts | 263° |
| 2026-05-05 18:00 | 42.83131 | 23.59681 | 8370 ft | 355 kts | 263° |
| 2026-05-05 18:00 | 42.82773 | 23.56407 | 7951 ft | 348 kts | 263° |
| 2026-05-05 18:01 | 42.82420 | 23.53186 | 7540 ft | 341 kts | 263° |
| 2026-05-05 18:01 | 42.82072 | 23.50018 | 7207 ft | 331 kts | 263° |
| 2026-05-05 18:01 | 42.81737 | 23.46977 | 6881 ft | 323 kts | 262° |
| 2026-05-05 18:01 | 42.81411 | 23.44019 | 6543 ft | 315 kts | 262° |
| 2026-05-05 18:02 | 42.81089 | 23.41105 | 6202 ft | 308 kts | 262° |
| 2026-05-05 18:02 | 42.80769 | 23.38218 | 5866 ft | 302 kts | 262° |
| 2026-05-05 18:02 | 42.80462 | 23.35447 | 5549 ft | 296 kts | 262° |
| 2026-05-05 18:02 | 42.80158 | 23.32720 | 5213 ft | 282 kts | 261° |
| 2026-05-05 18:03 | 42.79874 | 23.30178 | 4904 ft | 266 kts | 261° |
| 2026-05-05 18:03 | 42.79603 | 23.27756 | 4540 ft | 254 kts | 261° |
| 2026-05-05 18:03 | 42.79256 | 23.25441 | 4281 ft | 243 kts | 246° |
| 2026-05-05 18:03 | 42.78242 | 23.23754 | 4076 ft | 227 kts | 210° |
| 2026-05-05 18:04 | 42.76822 | 23.23123 | 4031 ft | 203 kts | 181° |
| 2026-05-05 18:04 | 42.75440 | 23.23185 | 4125 ft | 189 kts | 176° |
| 2026-05-05 18:04 | 42.74206 | 23.23289 | 4048 ft | 170 kts | 176° |
| 2026-05-05 18:04 | 42.73015 | 23.23379 | 4040 ft | 170 kts | 176° |
| 2026-05-05 18:05 | 42.71863 | 23.23465 | 4015 ft | 161 kts | 172° |
| 2026-05-05 18:05 | 42.70925 | 23.24052 | 3977 ft | 144 kts | 125° |
| 2026-05-05 18:05 | 42.70566 | 23.25324 | 3960 ft | 147 kts | 99° |
| 2026-05-05 18:05 | 42.70484 | 23.26681 | 3700 ft | 146 kts | 91° |
| 2026-05-05 18:06 | 42.70452 | 23.28029 | 3426 ft | 139 kts | 92° |
| 2026-05-05 18:06 | 42.70420 | 23.28887 | 3313 ft | 138 kts | 93° |
| 2026-05-05 18:06 | 42.70332 | 23.30617 | 3077 ft | 137 kts | 95° |
| 2026-05-05 18:06 | 42.70250 | 23.31889 | 2903 ft | 136 kts | 94° |
| 2026-05-05 18:07 | 42.70168 | 23.33178 | 2727 ft | 135 kts | 94° |
| 2026-05-05 18:07 | 42.70090 | 23.34451 | 2551 ft | 135 kts | 94° |
| 2026-05-05 18:07 | 42.70014 | 23.35701 | 2377 ft | 134 kts | 94° |
| 2026-05-05 18:07 | 42.69936 | 23.36970 | 2201 ft | 133 kts | 94° |
| 2026-05-05 18:08 | 42.69856 | 23.38223 | 2025 ft | 133 kts | 94° |
| 2026-05-05 18:08 | 42.69774 | 23.39457 | 1859 ft | 132 kts | 93° |
| 2026-05-05 18:08 | 42.69708 | 23.40693 | 1759 ft | 122 kts | 94° |
| 2026-05-05 18:08 | 42.69650 | 23.41678 | 1758 ft | 91 kts | 94° |
| 2026-05-05 18:09 | 42.69606 | 23.42340 | 1758 ft | 52 kts | 98° |
| 2026-05-05 18:09 | 42.69469 | 23.42745 | 1758 ft | 37 kts | 158° |
| 2026-05-05 18:09 | 42.69407 | 23.42537 | 1758 ft | 27 kts | 275° |
| 2026-05-05 18:09 | 42.69422 | 23.42289 | 1758 ft | 25 kts | 275° |
| 2026-05-05 18:10 | 42.69436 | 23.42054 | 1758 ft | 24 kts | 274° |
| 2026-05-05 18:10 | 42.69449 | 23.41831 | 1758 ft | 23 kts | 275° |
| 2026-05-05 18:10 | 42.69463 | 23.41616 | 1758 ft | 22 kts | 275° |
| 2026-05-05 18:10 | 42.69474 | 23.41408 | 1758 ft | 21 kts | 274° |
| 2026-05-05 18:11 | 42.69470 | 23.41239 | 1758 ft | 14 kts | 233° |
| 2026-05-05 18:11 | 42.69373 | 23.41190 | 1758 ft | 15 kts | 193° |
| 2026-05-05 18:11 | 42.69267 | 23.41159 | 1758 ft | 15 kts | 191° |
| 2026-05-05 18:11 | 42.69160 | 23.41128 | 1758 ft | 15 kts | 199° |
| 2026-05-05 18:12 | 42.69102 | 23.41011 | 1758 ft | 16 kts | 254° |
| 2026-05-05 18:12 | 42.69067 | 23.40866 | 1758 ft | 12 kts | 252° |
| 2026-05-05 18:12 | 42.69043 | 23.40816 | 1758 ft | 4 kts | 188° |
| 2026-05-05 18:12 | 42.69006 | 23.40835 | 1758 ft | 6 kts | 160° |
| 2026-05-05 18:13 | 42.68967 | 23.40853 | 1758 ft | 0 kts | 161° |